This is the latest recevied weather packets stored in our database for station/object KB9PMA-1. If no packets are shown the sender has not sent any weather packets the latest 10 day(s).
| Time | Temp. | Humidity | Pressure | Rain* | Wind** | Luminosity | Snow |
|---|---|---|---|---|---|---|---|
| 1778016738 | 8.89° C | 95% | 1010.6 hPa | 2.03 mm | - | - | - |
| 1778016738 | 8.89° C | 95% | 1010.4 hPa | 1.78 mm | - | - | - |
| 1778016476 | 8.89° C | 95% | 1010.6 hPa | 2.03 mm | - | - | - |
| 1778016176 | 8.89° C | 95% | 1010.4 hPa | 1.78 mm | - | - | - |
| 1778015876 | 9.44° C | 95% | 1010.3 hPa | 2.03 mm | - | - | - |
| 1778015576 | 9.44° C | 95% | 1010.3 hPa | 2.29 mm | - | - | - |
| 1778015276 | 9.44° C | 95% | 1010.3 hPa | 2.29 mm | - | - | - |
| 1778014976 | 9.44° C | 95% | 1010.3 hPa | 2.54 mm | - | - | - |
| 1778014676 | 9.44° C | 95% | 1010.3 hPa | 2.54 mm | - | - | - |
| 1778013476 | 9.44° C | 95% | 1010.1 hPa | 1.78 mm | - | - | - |
| 1778013176 | 9.44° C | 95% | 1010.1 hPa | 1.52 mm | - | - | - |
| 1778012876 | 9.44° C | 95% | 1010 hPa | 1.27 mm | - | - | - |
| 1778012576 | 9.44° C | 94% | 1010 hPa | 1.27 mm | - | - | - |
| 1778012276 | 10° C | 93% | 1010 hPa | 1.27 mm | - | - | - |
| 1778011976 | 10° C | 94% | 1009.9 hPa | 1.02 mm | - | - | - |
| 1778011676 | 10° C | 95% | 1009.8 hPa | 0.76 mm | - | - | - |
| 1778011376 | 10° C | 94% | 1009.8 hPa | 0.76 mm | - | - | - |
| 1778011076 | 10° C | 93% | 1009.8 hPa | 0.76 mm | - | - | - |
| 1778009876 | 10.56° C | 94% | 1009.8 hPa | 1.52 mm | - | - | - |
| 1778009576 | 10.56° C | 95% | 1009.6 hPa | 1.78 mm | - | - | - |
| 1778009276 | 10.56° C | 94% | 1009.8 hPa | 2.03 mm | - | - | - |
| 1778008976 | 10.56° C | 94% | 1010 hPa | 2.29 mm | - | - | - |
| 1778008676 | 10.56° C | 94% | 1009.9 hPa | 2.29 mm | - | - | - |
| 1778008376 | 10.56° C | 94% | 1010 hPa | 2.54 mm | - | - | - |
| 1778008076 | 10.56° C | 94% | 1010 hPa | 3.05 mm | - | - | - |
* Rain latest hour (hover to see other rain measurements)
** Current wind speed in m/s (hover to see current wind gust speed)